Woodmere, New York
Current Conditions -  °F | °C
As of 8:51 PM on Friday 19 Dec 2014 (Local Time) from KJFK Reporting Station
Scattered Clouds Scattered Clouds  
Wind Chill: 24°   Ceiling: Unl
Heat Index: 33°   Visibility: 10mi
Dew Point: 19°   Wind: 12mph
Humidity: 56%   Direction: 330°NNW
Pressure: 30.15"   Gusts: NA
Location:  40.64°N, 73.72°W
Report Text: KJFK 200151Z 33010KT 10SM SCT033 01/M07 A3015 RMK AO2 SLP210 T00061072 $
Loading
Personal Weather Stations






























Interactive Weather Map New forecast layout! Learn more

10-Day Weather Forecast

Advertisements
Track Severe Weather on mobile